Time,TemperatureF,DewpointF,PressureIn,WindDirection,WindDirectionDegrees,WindSpeedMPH,WindSpeedGustMPH,Humidity,HourlyPrecipIn,Conditions,Clouds,dailyrainin,SoftwareType,DateUTC
2013-02-27 00:30:00,32.9,32.4,30.16,North,355,3.0,7.0,98,0.00,OVC,SCT,0.00,WeatherDisplay:10.37,2013-02-27 05:30:00,
2013-02-27 00:59:00,33.1,32.6,30.15,North,10,3.0,7.0,98,0.00,OVC,SCT,0.00,WeatherDisplay:10.37,2013-02-27 05:59:00,
2013-02-27 01:30:00,33.3,32.8,30.13,NNE,13,2.0,6.0,98,0.00,OVC,SCT,0.00,WeatherDisplay:10.37,2013-02-27 06:30:00,
2013-02-27 01:59:00,33.5,33.0,30.11,North,355,3.0,7.0,98,0.00,OVC,SCT,0.00,WeatherDisplay:10.37,2013-02-27 06:59:00,
2013-02-27 02:00:00,33.5,33.0,30.11,North,355,3.0,7.0,98,0.00,OVC,SCT,0.00,WeatherDisplay:10.37,2013-02-27 07:00:00,
2013-02-27 02:29:00,33.8,33.3,30.11,NNW,348,2.0,7.0,98,0.00,OVC,SCT,0.00,WeatherDisplay:10.37,2013-02-27 07:29:00,
2013-02-27 02:59:00,33.4,32.9,30.11,North,353,1.0,7.0,98,0.00,OVC,SCT,0.00,WeatherDisplay:10.37,2013-02-27 07:59:00,
2013-02-27 03:29:00,32.7,32.2,30.10,North,351,2.0,5.0,98,0.00,-SN,SCT,0.00,WeatherDisplay:10.37,2013-02-27 08:29:00,
2013-02-27 03:59:00,32.5,32.0,30.08,NNW,331,3.0,6.0,98,0.00,-SN,SCT,0.00,WeatherDisplay:10.37,2013-02-27 08:59:00,
2013-02-27 04:29:00,32.4,31.9,30.07,NNW,345,2.0,7.0,98,0.00,-SN,SCT,0.00,WeatherDisplay:10.37,2013-02-27 09:29:00,
2013-02-27 04:59:00,32.4,31.9,30.05,NNW,346,5.0,6.0,98,0.00,-SN,SCT,0.00,WeatherDisplay:10.37,2013-02-27 09:59:00,
2013-02-27 05:29:00,32.4,31.9,30.03,North,349,2.0,7.0,98,0.00,-SN,SCT,0.00,WeatherDisplay:10.37,2013-02-27 10:29:00,
2013-02-27 05:59:00,32.4,31.9,30.01,North,351,5.0,8.0,98,0.00,-SN,SCT,0.00,WeatherDisplay:10.37,2013-02-27 10:59:00,
2013-02-27 06:29:00,32.9,32.4,30.00,NNW,339,5.0,10.0,98,0.00,-SN,SCT,0.00,WeatherDisplay:10.37,2013-02-27 11:29:00,
2013-02-27 06:59:00,33.3,32.8,29.98,NNW,348,5.0,9.0,98,0.00,-SN,SCT,0.00,WeatherDisplay:10.37,2013-02-27 11:59:00,
2013-02-27 07:29:00,33.6,33.1,29.95,North,357,5.0,8.0,98,0.00,-RA,SCT,0.00,WeatherDisplay:10.37,2013-02-27 12:29:00,
2013-02-27 07:59:00,35.1,34.6,29.94,North,359,3.0,7.0,98,0.00,OVC,SCT,0.00,WeatherDisplay:10.37,2013-02-27 12:59:00,
2013-02-27 08:59:00,38.3,37.8,29.90,NNE,20,9.0,12.0,98,0.00,-RA,SCT,0.00,WeatherDisplay:10.37,2013-02-27 13:59:00,
2013-02-27 09:29:00,38.8,38.3,29.89,NNE,14,7.0,10.0,98,0.00,OVC,SCT,0.00,WeatherDisplay:10.37,2013-02-27 14:29:00,
2013-02-27 09:59:00,39.2,38.7,29.87,NNE,13,5.0,10.0,98,0.00,-RA,SCT,0.00,WeatherDisplay:10.37,2013-02-27 14:59:00,
2013-02-27 10:29:00,39.6,39.1,29.86,NNE,33,7.0,10.0,98,0.00,-RA,SCT,0.00,WeatherDisplay:10.37,2013-02-27 15:29:00,
2013-02-27 10:59:00,40.1,39.6,29.85,NNE,31,8.0,13.0,98,0.00,-RA,SCT,0.00,WeatherDisplay:10.37,2013-02-27 15:59:00,
2013-02-27 11:29:00,40.3,39.7,29.83,NE,43,8.0,15.0,98,0.00,-RA,SCT,0.00,WeatherDisplay:10.37,2013-02-27 16:29:00,
2013-02-27 11:59:00,40.0,39.4,29.82,NNE,27,6.0,14.0,98,0.00,-RA,SCT,0.00,WeatherDisplay:10.37,2013-02-27 16:59:00,
2013-02-27 12:29:00,40.1,39.6,29.80,NNE,32,6.0,14.0,98,0.00,-RA,SCT,0.00,WeatherDisplay:10.37,2013-02-27 17:29:00,
2013-02-27 12:59:00,39.9,39.4,29.80,NNE,20,9.0,10.0,98,0.00,OVC,SCT,0.00,WeatherDisplay:10.37,2013-02-27 17:59:00,
2013-02-27 13:29:00,39.7,39.2,29.79,NNE,20,8.0,12.0,98,0.00,-RA,SCT,0.00,WeatherDisplay:10.37,2013-02-27 18:29:00,
2013-02-27 13:59:00,39.0,38.5,29.79,North,11,6.0,12.0,98,0.00,OVC,SCT,0.00,WeatherDisplay:10.37,2013-02-27 18:59:00,
2013-02-27 14:29:00,37.9,37.4,29.78,NNE,26,5.0,9.0,98,0.00,OVC,SCT,0.00,WeatherDisplay:10.37,2013-02-27 19:29:00,
2013-02-27 14:59:00,36.5,36.0,29.78,NNE,27,3.0,9.0,98,0.00,OVC,SCT,0.00,WeatherDisplay:10.37,2013-02-27 19:59:00,
2013-02-27 15:29:00,35.4,34.9,29.76,North,354,2.0,12.0,98,0.00,OVC,SCT,0.00,WeatherDisplay:10.37,2013-02-27 20:29:00,
2013-02-27 15:59:00,34.5,34.0,29.75,NNW,346,3.0,8.0,98,0.00,OVC,SCT,0.00,WeatherDisplay:10.37,2013-02-27 20:59:00,
2013-02-27 16:29:00,34.0,33.5,29.73,North,351,5.0,7.0,98,0.00,-RA,SCT,0.00,WeatherDisplay:10.37,2013-02-27 21:29:00,
2013-02-27 16:59:00,34.5,34.0,29.73,NNW,348,6.0,10.0,98,0.00,-RA,SCT,0.00,WeatherDisplay:10.37,2013-02-27 21:59:00,
2013-02-27 17:29:00,34.7,34.2,29.72,NNW,342,2.0,9.0,98,0.00,-RA,SCT,0.00,WeatherDisplay:10.37,2013-02-27 22:29:00,
2013-02-27 17:59:00,34.2,33.7,29.72,NW,306,3.0,7.0,98,0.00,-RA,SCT,0.00,WeatherDisplay:10.37,2013-02-27 22:59:00,
2013-02-27 18:29:00,33.6,33.1,29.71,NNW,348,2.0,7.0,98,0.00,-RA,SCT,0.00,WeatherDisplay:10.37,2013-02-27 23:29:00,
2013-02-27 18:30:00,33.3,32.8,29.91,NNW,336,5.0,5.0,98,0.00,-RA,SCT,0.00,WeatherDisplay:10.37,2013-02-27 23:30:00,
2013-02-27 18:59:00,33.3,32.8,29.69,NNW,329,3.0,9.0,98,0.00,-RA,SCT,0.00,WeatherDisplay:10.37,2013-02-27 23:59:00,
2013-02-27 19:29:00,33.1,32.6,29.67,NNW,348,2.0,10.0,98,0.00,-RA,SCT,0.00,WeatherDisplay:10.37,2013-02-28 00:29:00,
2013-02-27 19:59:00,33.1,32.6,29.68,WNW,303,3.0,9.0,98,0.00,-RA,SCT,0.00,WeatherDisplay:10.37,2013-02-28 00:59:00,
2013-02-27 20:29:00,33.3,32.8,29.67,WNW,289,3.0,7.0,98,0.00,-RA,SCT,0.00,WeatherDisplay:10.37,2013-02-28 01:29:00,
2013-02-27 20:59:00,33.1,32.6,29.66,WNW,288,3.0,8.0,98,0.00,-RA,SCT,0.00,WeatherDisplay:10.37,2013-02-28 01:59:00,
2013-02-27 21:29:00,33.1,32.6,29.64,NW,309,5.0,8.0,98,0.00,-RA,SCT,0.00,WeatherDisplay:10.37,2013-02-28 02:29:00,